Time;durP1;ratioP1;P1;durP2;ratioP2;P2;SDS_P1;SDS_P2;PMS_P1;PMS_P2;Temp;Humidity;BMP_temperature;BMP_pressure;BME280_temperature;BME280_humidity;BME280_pressure;Samples;Min_cycle;Max_cycle;Signal;HPM_P1;HPM_P2
2023/06/19 00:01:34;;;;;;;14.68;10.27;;;;;;;-144.87;100.00;61487.56;5001314;28;20483;-71
2023/06/19 00:04:01;;;;;;;13.23;9.85;;;;;;;-144.87;100.00;61487.56;4981276;28;20049;-71
2023/06/19 00:06:28;;;;;;;13.10;10.23;;;;;;;-144.87;100.00;61487.56;4960175;28;20058;-71
2023/06/19 00:08:54;;;;;;;14.73;11.27;;;;;;;-144.87;100.00;61487.56;4990266;28;20052;-71
2023/06/19 00:11:20;;;;;;;17.00;10.40;;;;;;;-144.87;100.00;61487.56;4987376;28;20030;-72
2023/06/19 00:13:46;;;;;;;17.17;10.93;;;;;;;-144.87;100.00;61487.56;5004203;28;20073;-69
2023/06/19 00:16:13;;;;;;;15.85;10.73;;;;;;;-144.87;100.00;61487.56;4992364;28;20133;-69
2023/06/19 00:18:42;;;;;;;19.65;11.07;;;;;;;-144.87;100.00;61487.56;4978921;28;20042;-71
2023/06/19 00:21:08;;;;;;;15.30;10.60;;;;;;;-144.87;100.00;61487.56;4988421;28;20038;-71
2023/06/19 00:23:35;;;;;;;17.77;9.77;;;;;;;-144.87;100.00;61487.56;4998364;28;20320;-70
2023/06/19 00:26:01;;;;;;;16.23;10.05;;;;;;;-144.87;100.00;61487.56;4997135;28;20049;-70
2023/06/19 00:28:29;;;;;;;25.35;10.27;;;;;;;-144.87;100.00;61487.56;4984040;28;20041;-71
2023/06/19 00:30:55;;;;;;;20.00;10.45;;;;;;;-144.87;100.00;61487.56;4987151;28;20261;-71
2023/06/19 00:33:21;;;;;;;20.85;10.65;;;;;;;-144.87;100.00;61487.56;4987256;28;20034;-70
2023/06/19 00:35:51;;;;;;;29.80;12.32;;;;;;;-144.87;100.00;61487.56;4997330;28;20045;-71
2023/06/19 00:38:18;;;;;;;14.70;9.77;;;;;;;-144.87;100.00;61487.56;4975806;28;20058;-70
2023/06/19 00:40:44;;;;;;;13.38;9.15;;;;;;;-144.87;100.00;61487.56;4997060;28;20054;-77
2023/06/19 00:43:10;;;;;;;12.55;8.43;;;;;;;-144.87;100.00;61487.56;4997720;28;20159;-71
2023/06/19 00:45:37;;;;;;;17.90;8.43;;;;;;;-144.87;100.00;61487.56;4996656;28;20038;-71
2023/06/19 00:48:04;;;;;;;15.18;7.70;;;;;;;-144.87;100.00;61487.56;4996504;28;20041;-71
2023/06/19 00:50:31;;;;;;;13.60;7.10;;;;;;;-144.87;100.00;61487.56;4983429;28;20057;-71
2023/06/19 00:52:59;;;;;;;17.00;7.68;;;;;;;-144.87;100.00;61487.56;4978094;28;20030;-69
2023/06/19 00:55:29;;;;;;;13.52;6.65;;;;;;;-144.87;100.00;61487.56;5003768;28;20026;-71
2023/06/19 00:57:55;;;;;;;10.93;6.47;;;;;;;-144.87;100.00;61487.56;4995990;28;20033;-70
2023/06/19 01:00:21;;;;;;;10.15;6.85;;;;;;;-144.87;100.00;61487.56;4990975;28;20060;-71
2023/06/19 01:02:48;;;;;;;12.43;6.60;;;;;;;-144.87;100.00;61487.56;4994666;28;20035;-70
2023/06/19 01:05:16;;;;;;;9.43;5.53;;;;;;;-144.87;100.00;61487.56;4979805;28;20117;-69
2023/06/19 01:08:20;;;;;;;7.97;5.28;;;;;;;-144.87;100.00;61487.56;4986540;28;20155;-71
2023/06/19 01:10:58;;;;;;;9.25;5.13;;;;;;;-144.87;100.00;61487.56;4995000;28;20045;-69
2023/06/19 01:13:30;;;;;;;11.60;4.78;;;;;;;-144.87;100.00;61487.56;4990597;28;20057;-70
2023/06/19 01:15:57;;;;;;;26.20;4.43;;;;;;;-144.87;100.00;61487.56;5017704;28;20044;-71
2023/06/19 01:18:25;;;;;;;7.72;3.80;;;;;;;-144.87;100.00;61487.56;5022490;28;20281;-70
2023/06/19 01:20:51;;;;;;;8.40;4.10;;;;;;;-144.87;100.00;61487.56;5017995;28;20041;-71
2023/06/19 01:23:17;;;;;;;7.63;3.90;;;;;;;-144.87;100.00;61487.56;5000612;28;20037;-73
2023/06/19 01:25:43;;;;;;;12.02;3.75;;;;;;;-144.87;100.00;61487.56;5025126;28;20041;-71
2023/06/19 01:28:11;;;;;;;6.80;3.53;;;;;;;-144.87;100.00;61487.56;5022420;28;20030;-71
2023/06/19 01:30:40;;;;;;;27.83;4.60;;;;;;;-144.87;100.00;61487.56;5034997;28;20044;-72
2023/06/19 01:33:20;;;;;;;7.72;4.15;;;;;;;-144.87;100.00;61487.56;5040568;28;20065;-69
2023/06/19 01:35:49;;;;;;;10.52;4.15;;;;;;;-144.87;100.00;61487.56;5030605;28;20063;-70
2023/06/19 01:38:17;;;;;;;6.65;4.15;;;;;;;-144.87;100.00;61487.56;5041818;28;20034;-69
2023/06/19 01:40:43;;;;;;;6.78;3.67;;;;;;;-144.87;100.00;61487.56;5029516;28;20030;-72
2023/06/19 01:43:10;;;;;;;5.28;4.10;;;;;;;-144.87;100.00;61487.56;5025074;28;20049;-71
2023/06/19 01:45:37;;;;;;;10.38;3.83;;;;;;;-144.87;100.00;61487.56;5017023;28;20034;-71
2023/06/19 01:48:04;;;;;;;7.05;4.25;;;;;;;-144.87;100.00;61487.56;5003068;28;20053;-71
2023/06/19 01:50:30;;;;;;;6.25;3.88;;;;;;;-144.87;100.00;61487.56;5015049;28;20037;-72
2023/06/19 01:52:56;;;;;;;8.85;3.95;;;;;;;-144.87;100.00;61487.56;5019924;28;20045;-71
2023/06/19 01:55:22;;;;;;;5.28;4.22;;;;;;;-144.87;100.00;61487.56;5022023;28;20080;-71
2023/06/19 01:57:49;;;;;;;8.48;4.15;;;;;;;-144.87;100.00;61487.56;5020924;28;20041;-71
2023/06/19 02:00:17;;;;;;;7.65;4.20;;;;;;;-144.87;100.00;61487.56;5002381;28;20111;-71
2023/06/19 02:02:43;;;;;;;8.30;4.30;;;;;;;-144.87;100.00;61487.56;5016531;28;20482;-71
2023/06/19 02:05:10;;;;;;;22.48;5.13;;;;;;;-144.87;100.00;61487.56;5015049;28;20072;-71
2023/06/19 02:07:37;;;;;;;7.35;4.35;;;;;;;-144.87;100.00;61487.56;5015707;28;20030;-69
2023/06/19 02:10:04;;;;;;;8.05;5.03;;;;;;;-144.87;100.00;61487.56;4993057;28;20061;-71
2023/06/19 02:12:31;;;;;;;10.13;5.20;;;;;;;-144.87;100.00;61487.56;5027584;28;20049;-70
2023/06/19 02:14:57;;;;;;;7.38;5.50;;;;;;;-144.87;100.00;61487.56;5011708;28;20046;-69
2023/06/19 02:17:23;;;;;;;8.60;5.40;;;;;;;-144.87;100.00;61487.56;5024981;28;20056;-71
2023/06/19 02:19:49;;;;;;;9.02;5.75;;;;;;;-144.87;100.00;61487.56;5006911;28;20446;-71
2023/06/19 02:22:18;;;;;;;8.73;6.22;;;;;;;-144.87;100.00;61487.56;5005891;28;20033;-71
2023/06/19 02:24:44;;;;;;;10.90;6.10;;;;;;;-144.87;100.00;61487.56;5016056;28;20037;-71
2023/06/19 02:27:13;;;;;;;7.80;5.80;;;;;;;-144.87;100.00;61487.56;5020525;28;20096;-71
2023/06/19 02:29:39;;;;;;;9.10;5.95;;;;;;;-144.87;100.00;61487.56;5003423;28;20101;-70
2023/06/19 02:32:05;;;;;;;9.07;6.72;;;;;;;-144.87;100.00;61487.56;5019959;28;20040;-69
2023/06/19 02:34:34;;;;;;;8.02;6.15;;;;;;;-144.87;100.00;61487.56;5007982;28;20041;-70
2023/06/19 02:37:00;;;;;;;10.18;7.50;;;;;;;-144.87;100.00;61487.56;5019114;28;20033;-70
2023/06/19 02:39:29;;;;;;;10.52;6.55;;;;;;;-144.87;100.00;61487.56;5024537;28;20029;-70
2023/06/19 02:41:55;;;;;;;7.40;6.00;;;;;;;-144.87;100.00;61487.56;5008865;28;20030;-71
2023/06/19 02:44:21;;;;;;;10.32;6.63;;;;;;;-144.87;100.00;61487.56;5017879;28;20112;-70
2023/06/19 02:46:47;;;;;;;8.25;6.47;;;;;;;-144.87;100.00;61487.56;5018845;28;20041;-69
2023/06/19 02:49:17;;;;;;;7.18;6.30;;;;;;;-144.87;100.00;61487.56;5009896;28;20034;-68
2023/06/19 02:51:43;;;;;;;7.45;6.30;;;;;;;-144.87;100.00;61487.56;5010009;28;20571;-69
2023/06/19 02:54:09;;;;;;;10.68;6.75;;;;;;;-144.87;100.00;61487.56;5030798;28;20117;-70
2023/06/19 02:56:37;;;;;;;8.52;7.20;;;;;;;-144.87;100.00;61487.56;5023996;28;20042;-69
2023/06/19 02:59:04;;;;;;;9.32;6.75;;;;;;;-144.87;100.00;61487.56;5043531;28;20380;-72
2023/06/19 03:01:30;;;;;;;10.48;7.10;;;;;;;-144.87;100.00;61487.56;5023001;28;20077;-71
2023/06/19 03:03:57;;;;;;;11.65;7.85;;;;;;;-144.87;100.00;61487.56;5024596;28;20033;-70
2023/06/19 03:06:23;;;;;;;10.40;8.55;;;;;;;-144.87;100.00;61487.56;5025708;28;20041;-70
2023/06/19 03:08:49;;;;;;;11.50;8.68;;;;;;;-144.87;100.00;61487.56;5018540;28;20049;-70
2023/06/19 03:11:16;;;;;;;16.48;10.45;;;;;;;-144.87;100.00;61487.56;5022266;28;20038;-70
2023/06/19 03:13:46;;;;;;;17.83;11.07;;;;;;;-144.87;100.00;61487.56;5009132;28;20065;-70
2023/06/19 03:16:14;;;;;;;19.13;10.75;;;;;;;-144.87;100.00;61487.56;5013994;28;20537;-71
2023/06/19 03:18:42;;;;;;;14.43;10.80;;;;;;;-144.87;100.00;61487.56;5011877;28;20057;-70
2023/06/19 03:21:08;;;;;;;41.70;15.02;;;;;;;-144.87;100.00;61487.56;5019833;28;20060;-71
2023/06/19 03:23:35;;;;;;;24.35;13.10;;;;;;;-144.87;100.00;61487.56;5020862;28;20879;-71
2023/06/19 03:26:02;;;;;;;17.58;12.75;;;;;;;-144.87;100.00;61487.56;5007666;28;20041;-70
2023/06/19 03:28:28;;;;;;;16.88;13.02;;;;;;;-144.87;100.00;61487.56;5025641;28;20433;-70
2023/06/19 03:30:55;;;;;;;15.95;12.25;;;;;;;-144.87;100.00;61487.56;5016054;28;20037;-69
2023/06/19 03:33:24;;;;;;;15.98;12.43;;;;;;;-144.87;100.00;61487.56;5022544;28;20045;-69
2023/06/19 03:35:50;;;;;;;18.70;12.73;;;;;;;-144.87;100.00;61487.56;5010746;28;20454;-70
2023/06/19 03:38:29;;;;;;;19.55;12.95;;;;;;;-144.87;100.00;61487.56;5016458;28;20037;-71
2023/06/19 03:40:56;;;;;;;34.80;13.00;;;;;;;-144.87;100.00;61487.56;5023501;28;20030;-70
2023/06/19 03:43:22;;;;;;;15.70;12.60;;;;;;;-144.87;100.00;61487.56;5010403;28;20033;-70
2023/06/19 03:45:49;;;;;;;19.23;13.80;;;;;;;-144.87;100.00;61487.56;5004471;28;20096;-70
2023/06/19 03:48:17;;;;;;;16.10;13.82;;;;;;;-144.87;100.00;61487.56;5023726;28;20042;-71
2023/06/19 03:50:43;;;;;;;21.65;15.05;;;;;;;-144.87;100.00;61487.56;5013996;28;20093;-71
2023/06/19 03:53:09;;;;;;;21.20;15.23;;;;;;;-144.87;100.00;61487.56;5020097;28;20491;-70
2023/06/19 03:55:36;;;;;;;25.08;16.15;;;;;;;-144.87;100.00;61487.56;5028204;28;20040;-71
2023/06/19 03:58:02;;;;;;;24.08;17.08;;;;;;;-144.87;100.00;61487.56;5043321;28;20045;-69
2023/06/19 04:00:28;;;;;;;25.70;17.75;;;;;;;-144.87;100.00;61487.56;5023235;28;20033;-70
2023/06/19 04:02:56;;;;;;;26.77;18.38;;;;;;;-144.87;100.00;61487.56;5025244;28;20528;-71
2023/06/19 04:05:22;;;;;;;25.88;18.25;;;;;;;-144.87;100.00;61487.56;5011204;28;20161;-71
2023/06/19 04:07:49;;;;;;;27.52;17.98;;;;;;;-144.87;100.00;61487.56;5038051;28;20039;-70
2023/06/19 04:10:15;;;;;;;25.23;18.38;;;;;;;-144.87;100.00;61487.56;5041678;28;20049;-70
2023/06/19 04:12:42;;;;;;;28.02;18.38;;;;;;;-144.87;100.00;61487.56;5010253;28;20044;-70
2023/06/19 04:15:09;;;;;;;26.02;17.60;;;;;;;-144.87;100.00;61487.56;4993882;28;20061;-70
2023/06/19 04:17:36;;;;;;;26.23;16.27;;;;;;;-144.87;100.00;61487.56;5003428;28;20068;-70
2023/06/19 04:20:10;;;;;;;21.65;15.48;;;;;;;-144.87;100.00;61487.56;5010258;28;20585;-70
2023/06/19 04:22:40;;;;;;;21.42;14.63;;;;;;;-144.87;100.00;61487.56;5011841;28;20033;-70
2023/06/19 04:25:07;;;;;;;24.02;15.73;;;;;;;-144.87;100.00;61487.56;5011264;28;20090;-70
2023/06/19 04:27:34;;;;;;;21.35;15.02;;;;;;;-144.87;100.00;61487.56;5016301;28;20038;-72
2023/06/19 04:30:01;;;;;;;20.77;15.45;;;;;;;-144.87;100.00;61487.56;5002662;28;20073;-71
2023/06/19 04:32:28;;;;;;;48.60;18.38;;;;;;;-144.87;100.00;61487.56;5017028;28;20103;-69
2023/06/19 04:34:54;;;;;;;29.38;15.45;;;;;;;-144.87;100.00;61487.56;5017135;28;20038;-70
2023/06/19 04:37:20;;;;;;;26.38;15.75;;;;;;;-144.87;100.00;61487.56;5021832;28;20052;-72
2023/06/19 04:39:47;;;;;;;26.77;14.95;;;;;;;-144.87;100.00;61487.56;5027610;28;20076;-72
2023/06/19 04:42:19;;;;;;;22.17;14.70;;;;;;;-144.87;100.00;61487.56;5014368;28;20069;-71
2023/06/19 04:44:48;;;;;;;20.33;14.32;;;;;;;-144.87;100.00;61487.56;5028393;28;20086;-71
2023/06/19 04:47:16;;;;;;;19.35;13.23;;;;;;;-144.87;100.00;61487.56;5016084;28;20032;-71
2023/06/19 04:49:42;;;;;;;19.77;13.00;;;;;;;-144.87;100.00;61487.56;5015617;28;20033;-71
2023/06/19 04:52:08;;;;;;;15.80;11.68;;;;;;;-144.87;100.00;61487.56;5014390;28;20057;-70
2023/06/19 04:54:35;;;;;;;23.08;11.85;;;;;;;-144.87;100.00;61487.56;5011791;28;20318;-71
2023/06/19 04:57:01;;;;;;;12.77;10.55;;;;;;;-144.87;100.00;61487.56;5019459;28;20026;-70
2023/06/19 04:59:30;;;;;;;12.40;10.30;;;;;;;-144.87;100.00;61487.56;5009986;28;20060;-70
2023/06/19 05:01:56;;;;;;;14.93;9.38;;;;;;;-144.87;100.00;61487.56;5010850;28;20042;-70
2023/06/19 05:04:23;;;;;;;16.95;7.93;;;;;;;-144.87;100.00;61487.56;4982483;28;20035;-70
2023/06/19 05:06:49;;;;;;;12.20;7.95;;;;;;;-144.87;100.00;61487.56;5011896;28;20114;-70
2023/06/19 05:09:16;;;;;;;12.73;8.70;;;;;;;-144.87;100.00;61487.56;5016601;28;20495;-70
2023/06/19 05:11:42;;;;;;;10.48;6.50;;;;;;;-144.87;100.00;61487.56;5022084;28;20033;-70
2023/06/19 05:14:08;;;;;;;10.48;5.80;;;;;;;-144.87;100.00;61487.56;5011660;28;20045;-69
2023/06/19 05:16:34;;;;;;;11.60;7.20;;;;;;;-144.87;100.00;61487.56;5024011;28;20037;-69
2023/06/19 05:19:01;;;;;;;9.55;6.35;;;;;;;-144.87;100.00;61487.56;5033507;28;20037;-70
2023/06/19 05:21:27;;;;;;;9.98;6.05;;;;;;;-144.87;100.00;61487.56;5025713;28;20049;-71
2023/06/19 05:23:54;;;;;;;9.98;5.82;;;;;;;-144.87;100.00;61487.56;5017613;28;20427;-71
2023/06/19 05:26:21;;;;;;;8.20;6.30;;;;;;;-144.87;100.00;61487.56;5018199;28;20407;-70
2023/06/19 05:28:48;;;;;;;9.45;5.50;;;;;;;-144.87;100.00;61487.56;5024319;28;20029;-70
2023/06/19 05:31:14;;;;;;;7.32;5.15;;;;;;;-144.87;100.00;61487.56;5008580;28;20120;-70
2023/06/19 05:33:41;;;;;;;9.07;5.22;;;;;;;-144.87;100.00;61487.56;5012644;28;20037;-70
2023/06/19 05:36:08;;;;;;;9.38;5.75;;;;;;;-144.87;100.00;61487.56;5030554;28;20037;-69
2023/06/19 05:38:34;;;;;;;8.40;6.18;;;;;;;-144.87;100.00;61487.56;5025040;28;20029;-70
2023/06/19 05:41:04;;;;;;;8.25;6.68;;;;;;;-144.87;100.00;61487.56;5019237;28;20447;-70
2023/06/19 05:43:31;;;;;;;14.45;6.97;;;;;;;-144.87;100.00;61487.56;5031674;28;20042;-69
2023/06/19 05:45:59;;;;;;;13.55;7.28;;;;;;;-144.87;100.00;61487.56;5033801;28;20033;-69
2023/06/19 05:48:26;;;;;;;47.45;9.38;;;;;;;-144.87;100.00;61487.56;5032748;28;20029;-69
2023/06/19 05:50:52;;;;;;;18.02;8.73;;;;;;;-144.87;100.00;61487.56;5029712;28;20068;-70
2023/06/19 05:53:19;;;;;;;11.82;8.23;;;;;;;-144.87;100.00;61487.56;5017141;28;20045;-69
2023/06/19 05:55:46;;;;;;;15.55;8.65;;;;;;;-144.87;100.00;61487.56;5022628;28;20843;-69
2023/06/19 05:58:12;;;;;;;16.50;8.63;;;;;;;-144.87;100.00;61487.56;5026018;28;20550;-69
2023/06/19 06:00:38;;;;;;;11.48;8.82;;;;;;;-144.87;100.00;61487.56;5028331;28;20149;-70
2023/06/19 06:03:05;;;;;;;13.70;8.60;;;;;;;-144.87;100.00;61487.56;5023435;28;20459;-70
2023/06/19 06:05:31;;;;;;;12.57;9.23;;;;;;;-144.87;100.00;61487.56;5028328;28;20056;-70
2023/06/19 06:07:57;;;;;;;13.25;9.77;;;;;;;-144.87;100.00;61487.56;5030770;28;20057;-70
2023/06/19 06:10:25;;;;;;;11.13;9.73;;;;;;;-144.87;100.00;61487.56;5032095;28;20041;-71
2023/06/19 06:12:51;;;;;;;14.40;10.10;;;;;;;-144.87;100.00;61487.56;5028761;28;20130;-72
2023/06/19 06:15:17;;;;;;;17.90;9.13;;;;;;;-144.87;100.00;61487.56;5012113;28;20414;-71
2023/06/19 06:17:43;;;;;;;14.90;9.05;;;;;;;-144.87;100.00;61487.56;5001048;28;20049;-72
2023/06/19 06:20:12;;;;;;;14.85;9.25;;;;;;;-144.87;100.00;61487.56;4972713;28;20080;-70
2023/06/19 06:22:40;;;;;;;17.30;10.27;;;;;;;-144.87;100.00;61487.56;4984834;28;20042;-71
2023/06/19 06:25:07;;;;;;;15.27;10.30;;;;;;;-144.87;100.00;61487.56;4996385;28;20034;-72
2023/06/19 06:27:33;;;;;;;14.50;10.15;;;;;;;-144.87;100.00;61487.56;4996027;28;20026;-72
2023/06/19 06:30:00;;;;;;;15.35;10.77;;;;;;;-144.87;100.00;61487.56;4972732;28;20037;-71
2023/06/19 06:32:28;;;;;;;14.93;11.02;;;;;;;-144.87;100.00;61487.56;5001437;28;20034;-70
2023/06/19 06:34:54;;;;;;;15.00;11.88;;;;;;;-144.87;100.00;61487.56;5000335;28;20077;-69
2023/06/19 06:37:24;;;;;;;17.17;11.38;;;;;;;-144.87;100.00;61487.56;4984262;28;20684;-70
2023/06/19 06:39:50;;;;;;;16.40;11.20;;;;;;;-144.87;100.00;61487.56;4999516;28;20113;-71
2023/06/19 06:42:17;;;;;;;14.38;11.82;;;;;;;-144.87;100.00;61487.56;4993228;28;20088;-71
2023/06/19 06:44:44;;;;;;;19.50;11.95;;;;;;;-144.87;100.00;61487.56;4990477;28;20038;-70
2023/06/19 06:47:10;;;;;;;14.93;10.90;;;;;;;-144.87;100.00;61487.56;4975765;28;20121;-70
2023/06/19 06:49:37;;;;;;;15.43;11.20;;;;;;;-144.87;100.00;61487.56;4979015;28;20042;-70
2023/06/19 06:52:04;;;;;;;16.02;11.80;;;;;;;-144.87;100.00;61487.56;4987944;28;20093;-70
2023/06/19 06:54:31;;;;;;;23.38;10.90;;;;;;;-144.87;100.00;61487.56;4984923;28;20491;-71
2023/06/19 06:56:58;;;;;;;17.13;11.50;;;;;;;-144.87;100.00;61487.56;4998066;28;20050;-70
2023/06/19 06:59:27;;;;;;;16.88;12.18;;;;;;;-144.87;100.00;61487.56;4995531;28;20053;-72
2023/06/19 07:01:54;;;;;;;18.33;14.05;;;;;;;-144.87;100.00;61487.56;4995236;28;20061;-71
2023/06/19 07:04:21;;;;;;;20.63;14.40;;;;;;;-144.87;100.00;61487.56;4985050;28;20113;-70
2023/06/19 07:06:47;;;;;;;26.60;16.15;;;;;;;-144.87;100.00;61487.56;4997467;28;20030;-70
2023/06/19 07:09:15;;;;;;;23.83;16.33;;;;;;;-144.87;100.00;61487.56;5024240;28;20045;-69
2023/06/19 07:11:41;;;;;;;21.60;15.95;;;;;;;-144.87;100.00;61487.56;5007375;28;20030;-68
2023/06/19 07:14:07;;;;;;;26.17;17.38;;;;;;;-144.87;100.00;61487.56;5012387;28;20042;-72
2023/06/19 07:16:33;;;;;;;23.95;15.73;;;;;;;-144.87;100.00;61487.56;5036461;28;20045;-68
2023/06/19 07:19:00;;;;;;;25.83;15.65;;;;;;;-144.87;100.00;61487.56;5023931;28;20038;-71
2023/06/19 07:21:28;;;;;;;23.40;15.07;;;;;;;-144.87;100.00;61487.56;5017570;28;20038;-71
2023/06/19 07:23:54;;;;;;;21.52;15.10;;;;;;;-144.87;100.00;61487.56;5015512;28;20030;-71
2023/06/19 07:26:20;;;;;;;20.35;14.77;;;;;;;-144.87;100.00;61487.56;5020275;28;20034;-69
2023/06/19 07:28:47;;;;;;;25.88;16.08;;;;;;;-144.87;100.00;61487.56;5016706;28;20069;-71
2023/06/19 07:31:13;;;;;;;27.60;15.25;;;;;;;-144.87;100.00;61487.56;5020966;28;20112;-72
2023/06/19 07:33:39;;;;;;;19.90;14.63;;;;;;;-144.87;100.00;61487.56;5011734;28;20045;-70
2023/06/19 07:36:06;;;;;;;20.35;13.57;;;;;;;-144.87;100.00;61487.56;5020704;28;20129;-70
2023/06/19 07:38:33;;;;;;;20.48;13.70;;;;;;;-144.87;100.00;61487.56;5025852;28;20033;-71
2023/06/19 07:40:59;;;;;;;16.77;12.75;;;;;;;-144.87;100.00;61487.56;5014337;28;20037;-71
2023/06/19 07:43:25;;;;;;;19.58;12.88;;;;;;;-144.87;100.00;61487.56;5017604;28;20065;-71
2023/06/19 07:45:51;;;;;;;18.33;14.13;;;;;;;-144.87;100.00;61487.56;5020917;28;20056;-70
2023/06/19 07:48:18;;;;;;;19.30;14.13;;;;;;;-144.87;100.00;61487.56;5022144;28;20034;-71
2023/06/19 07:50:45;;;;;;;22.52;14.25;;;;;;;-144.87;100.00;61487.56;5017128;28;20038;-72
2023/06/19 07:53:12;;;;;;;21.17;14.20;;;;;;;-144.87;100.00;61487.56;5034581;28;20045;-71
2023/06/19 07:55:38;;;;;;;24.08;14.90;;;;;;;-144.87;100.00;61487.56;4996222;28;20056;-71
2023/06/19 07:58:04;;;;;;;18.88;14.30;;;;;;;-144.87;100.00;61487.56;5027329;28;20482;-70
2023/06/19 08:00:30;;;;;;;21.50;12.77;;;;;;;-144.87;100.00;61487.56;5013056;28;20034;-71
2023/06/19 08:02:57;;;;;;;20.52;12.90;;;;;;;-144.87;100.00;61487.56;5020704;28;20052;-71
2023/06/19 08:05:23;;;;;;;20.88;14.57;;;;;;;-144.87;100.00;61487.56;5029711;28;20091;-71
2023/06/19 08:07:49;;;;;;;17.05;12.95;;;;;;;-144.87;100.00;61487.56;5025188;28;20038;-70
2023/06/19 08:10:15;;;;;;;20.38;12.82;;;;;;;-144.87;100.00;61487.56;5017397;28;20098;-71
2023/06/19 08:12:43;;;;;;;21.45;12.23;;;;;;;-144.87;100.00;61487.56;5024782;28;20110;-71
2023/06/19 08:15:10;;;;;;;18.20;12.13;;;;;;;-144.87;100.00;61487.56;5015585;28;20057;-70
2023/06/19 08:17:36;;;;;;;16.92;11.52;;;;;;;-144.87;100.00;61487.56;5020474;28;20052;-70
2023/06/19 08:20:06;;;;;;;17.75;13.13;;;;;;;-144.87;100.00;61487.56;5016689;28;20033;-71
2023/06/19 08:22:33;;;;;;;21.80;14.18;;;;;;;-144.87;100.00;61487.56;5008761;28;20057;-71
2023/06/19 08:24:59;;;;;;;25.33;14.85;;;;;;;-144.87;100.00;61487.56;5024097;28;20045;-70
2023/06/19 08:27:25;;;;;;;23.73;16.90;;;;;;;-144.87;100.00;61487.56;5020286;28;20034;-71
2023/06/19 08:29:52;;;;;;;22.80;16.40;;;;;;;-144.87;100.00;61487.56;5014600;28;20072;-70
2023/06/19 08:32:18;;;;;;;22.92;15.02;;;;;;;-144.87;100.00;61487.56;5032250;28;20479;-71
2023/06/19 08:34:45;;;;;;;21.27;15.27;;;;;;;-144.87;100.00;61487.56;5023475;28;20507;-71
2023/06/19 08:37:11;;;;;;;22.02;16.13;;;;;;;-144.87;100.00;61487.56;5046196;28;20113;-71
2023/06/19 08:39:38;;;;;;;33.67;17.70;;;;;;;-144.87;100.00;61487.56;5021704;28;20137;-69
2023/06/19 08:42:08;;;;;;;20.77;16.77;;;;;;;-144.87;100.00;61487.56;5018814;28;20049;-71
2023/06/19 08:44:37;;;;;;;28.60;18.83;;;;;;;-144.87;100.00;61487.56;5022423;28;20046;-72
2023/06/19 08:47:04;;;;;;;24.30;19.20;;;;;;;-144.87;100.00;61487.56;5020874;28;20085;-71
2023/06/19 08:49:33;;;;;;;30.42;19.25;;;;;;;-144.87;100.00;61487.56;5025721;28;20046;-70
2023/06/19 08:51:59;;;;;;;26.65;20.40;;;;;;;-144.87;100.00;61487.56;5019635;28;20096;-71
2023/06/19 08:54:26;;;;;;;28.63;21.30;;;;;;;-144.87;100.00;61487.56;5011021;28;20049;-70
2023/06/19 08:56:53;;;;;;;26.58;20.50;;;;;;;-144.87;100.00;61487.56;5015366;28;20045;-70
2023/06/19 08:59:20;;;;;;;26.10;20.67;;;;;;;-144.87;100.00;61487.56;5018241;28;20074;-70
2023/06/19 09:01:54;;;;;;;31.65;21.80;;;;;;;-144.87;100.00;61487.56;5012754;28;20037;-72
2023/06/19 09:04:33;;;;;;;30.10;21.95;;;;;;;-144.87;100.00;61487.56;5008418;28;20160;-71
2023/06/19 09:07:02;;;;;;;25.08;20.45;;;;;;;-144.87;100.00;61487.56;5012224;28;20052;-71
2023/06/19 09:09:35;;;;;;;36.63;22.48;;;;;;;-144.87;100.00;61487.56;5018960;28;20038;-71
2023/06/19 09:12:06;;;;;;;30.98;22.05;;;;;;;-144.87;100.00;61487.56;5020091;28;20450;-72
2023/06/19 09:14:39;;;;;;;28.15;21.48;;;;;;;-144.87;100.00;61487.56;5015636;28;20053;-70
2023/06/19 09:17:07;;;;;;;27.20;21.17;;;;;;;-144.87;100.00;61487.56;5031106;28;20037;-72
2023/06/19 09:19:34;;;;;;;29.13;23.05;;;;;;;-144.87;100.00;61487.56;5017826;28;20026;-70
2023/06/19 09:22:02;;;;;;;29.45;21.55;;;;;;;-144.87;100.00;61487.56;4999458;28;20045;-70
2023/06/19 09:24:41;;;;;;;29.80;22.45;;;;;;;-144.87;100.00;61487.56;5023210;28;20041;-72
2023/06/19 09:27:13;;;;;;;35.80;22.83;;;;;;;-144.87;100.00;61487.56;5021833;28;20103;-72
2023/06/19 09:29:44;;;;;;;28.77;22.15;;;;;;;-144.87;100.00;61487.56;5029062;28;20048;-71
2023/06/19 09:32:30;;;;;;;29.58;21.67;;;;;;;-144.87;100.00;61487.56;5013302;28;20049;-71
2023/06/19 09:35:00;;;;;;;26.58;21.95;;;;;;;-144.87;100.00;61487.56;5024993;28;20036;-70
2023/06/19 09:37:30;;;;;;;33.95;22.20;;;;;;;-144.87;100.00;61487.56;5022342;28;20344;-70
2023/06/19 09:40:09;;;;;;;28.38;23.02;;;;;;;-144.87;100.00;61487.56;4992687;28;20038;-71
2023/06/19 09:42:39;;;;;;;30.73;23.63;;;;;;;-144.87;100.00;61487.56;5022721;28;20065;-70
2023/06/19 09:45:12;;;;;;;32.17;22.77;;;;;;;-144.87;100.00;61487.56;5028200;28;20072;-69
2023/06/19 09:47:46;;;;;;;30.95;22.92;;;;;;;-144.87;100.00;61487.56;5032025;28;20038;-71
2023/06/19 09:50:14;;;;;;;30.13;22.77;;;;;;;-144.87;100.00;61487.56;5030049;28;20445;-70
2023/06/19 09:52:43;;;;;;;28.13;21.17;;;;;;;-144.87;100.00;61487.56;5020080;28;20140;-70
2023/06/19 09:55:14;;;;;;;27.48;20.83;;;;;;;-144.87;100.00;61487.56;5017329;28;20030;-71
2023/06/19 09:57:41;;;;;;;;;;;;;;;-144.87;100.00;61487.56;5015559;28;20495;-70
2023/06/19 10:00:22;;;;;;;37.92;22.52;;;;;;;-144.87;100.00;61487.56;5007500;28;19914;-71
2023/06/19 10:02:48;;;;;;;;;;;;;;;-144.87;100.00;61487.56;5021882;28;20033;-71
2023/06/19 10:05:15;;;;;;;33.60;22.80;;;;;;;-144.87;100.00;61487.56;5032140;28;19995;-71
2023/06/19 10:07:46;;;;;;;30.48;21.45;;;;;;;-144.87;100.00;61487.56;5031132;28;20211;-71
2023/06/19 10:10:23;;;;;;;26.20;21.02;;;;;;;-144.87;100.00;61487.56;5025324;28;20407;-71
2023/06/19 10:12:49;;;;;;;24.50;21.30;;;;;;;-144.87;100.00;61487.56;5022408;28;20036;-71
2023/06/19 10:15:21;;;;;;;30.20;23.58;;;;;;;-144.87;100.00;61487.56;5024134;28;20526;-70
2023/06/19 10:18:05;;;;;;;27.85;22.13;;;;;;;-144.87;100.00;61487.56;5015053;28;20046;-72
2023/06/19 10:20:38;;;;;;;27.02;21.70;;;;;;;-144.87;100.00;61487.56;5028358;28;20047;-71
2023/06/19 10:23:24;;;;;;;29.42;22.83;;;;;;;-144.87;100.00;61487.56;5025284;28;20121;-71
2023/06/19 10:25:54;;;;;;;25.25;22.30;;;;;;;-144.87;100.00;61487.56;5028339;28;20515;-74
2023/06/19 10:28:27;;;;;;;28.13;22.07;;;;;;;-144.87;100.00;61487.56;5027004;28;20041;-70
2023/06/19 10:30:54;;;;;;;27.98;23.58;;;;;;;-144.87;100.00;61487.56;5029075;28;20145;-70
2023/06/19 10:33:25;;;;;;;27.58;23.00;;;;;;;-144.87;100.00;61487.56;5022766;28;20041;-70
2023/06/19 10:35:52;;;;;;;30.35;22.45;;;;;;;-144.87;100.00;61487.56;5031515;28;20042;-70
2023/06/19 10:38:18;;;;;;;26.00;21.55;;;;;;;-144.87;100.00;61487.56;5027244;28;20034;-71
2023/06/19 10:40:46;;;;;;;30.52;22.48;;;;;;;-144.87;100.00;61487.56;5012211;28;20093;-72
2023/06/19 10:43:19;;;;;;;23.35;19.25;;;;;;;-144.87;100.00;61487.56;5015842;28;20060;-71
2023/06/19 10:45:45;;;;;;;23.77;21.02;;;;;;;-144.87;100.00;61487.56;5024788;28;20037;-71
2023/06/19 10:48:20;;;;;;;26.98;19.58;;;;;;;-144.87;100.00;61487.56;5016746;28;20052;-70
2023/06/19 10:50:46;;;;;;;20.83;18.58;;;;;;;-144.87;100.00;61487.56;5031113;28;20030;-71
2023/06/19 10:53:22;;;;;;;22.50;20.00;;;;;;;-144.87;100.00;61487.56;5008188;28;20052;-70
2023/06/19 10:55:48;;;;;;;23.67;18.77;;;;;;;-144.87;100.00;61487.56;5029280;28;20116;-72
2023/06/19 10:58:14;;;;;;;26.58;20.45;;;;;;;-144.87;100.00;61487.56;5022255;28;20068;-73
2023/06/19 11:00:41;;;;;;;26.00;17.13;;;;;;;-144.87;100.00;61487.56;5009546;28;20133;-73
2023/06/19 11:03:07;;;;;;;27.92;18.52;;;;;;;-144.87;100.00;61487.56;5038403;28;20034;-71